createdAt,value
2023-09-13T00:02:17.490Z,18.88
2023-09-13T00:04:44.427Z,18.80
2023-09-13T00:07:12.221Z,18.61
2023-09-13T00:09:42.537Z,18.53
2023-09-13T00:12:09.766Z,18.63
2023-09-13T00:14:37.684Z,18.65
2023-09-13T00:17:04.424Z,18.76
2023-09-13T00:19:31.644Z,18.75
2023-09-13T00:21:58.713Z,18.79
2023-09-13T00:24:25.460Z,18.85
2023-09-13T00:26:51.959Z,18.86
2023-09-13T00:29:18.891Z,18.89
2023-09-13T00:31:45.724Z,18.88
2023-09-13T00:34:12.338Z,18.86
2023-09-13T00:36:38.846Z,18.83
2023-09-13T00:39:06.705Z,18.84
2023-09-13T00:41:33.492Z,18.87
2023-09-13T00:44:00.687Z,18.88
2023-09-13T00:46:29.239Z,18.91
2023-09-13T00:48:56.930Z,18.83
2023-09-13T00:51:23.688Z,18.85
2023-09-13T00:53:50.336Z,18.81
2023-09-13T00:56:17.957Z,18.75
2023-09-13T00:58:45.246Z,18.64
2023-09-13T01:01:13.827Z,18.63
2023-09-13T01:03:42.470Z,18.57
2023-09-13T01:06:10.692Z,18.54
2023-09-13T01:08:40.901Z,18.58
2023-09-13T01:11:08.139Z,18.47
2023-09-13T01:13:35.274Z,18.48
2023-09-13T01:16:15.714Z,18.45
2023-09-13T01:19:00.618Z,18.28
2023-09-13T01:21:53.771Z,18.44
2023-09-13T01:24:40.777Z,18.39
2023-09-13T01:27:16.314Z,18.36
2023-09-13T01:29:45.215Z,18.34
2023-09-13T01:32:11.955Z,18.30
2023-09-13T01:34:38.482Z,18.39
2023-09-13T01:37:06.062Z,18.37
2023-09-13T01:39:32.625Z,18.38
2023-09-13T01:42:09.010Z,18.34
2023-09-13T01:44:41.389Z,18.37
2023-09-13T01:47:09.247Z,18.34
2023-09-13T01:49:37.573Z,18.34
2023-09-13T01:52:05.864Z,18.23
2023-09-13T01:54:36.568Z,18.27
2023-09-13T01:57:03.927Z,18.20
2023-09-13T01:59:33.861Z,18.34
2023-09-13T02:02:00.619Z,18.33
2023-09-13T02:04:32.949Z,18.19
2023-09-13T02:07:00.818Z,18.24
2023-09-13T02:09:27.555Z,18.27
2023-09-13T02:11:54.055Z,18.32
2023-09-13T02:14:20.683Z,18.15
2023-09-13T02:16:47.528Z,18.31
2023-09-13T02:19:14.263Z,18.30
2023-09-13T02:21:42.212Z,18.21
2023-09-13T02:24:08.933Z,18.45
2023-09-13T02:26:36.368Z,18.41
2023-09-13T02:29:14.082Z,18.44
2023-09-13T02:31:40.759Z,18.43
2023-09-13T02:34:07.361Z,18.48
2023-09-13T02:36:33.879Z,18.51
2023-09-13T02:39:00.870Z,18.48
2023-09-13T02:41:27.402Z,18.41
2023-09-13T02:43:54.020Z,18.45
2023-09-13T02:46:20.628Z,18.41
2023-09-13T02:48:47.333Z,18.50
2023-09-13T02:51:15.690Z,18.39
2023-09-13T02:53:43.333Z,18.47
2023-09-13T02:56:10.479Z,18.52
2023-09-13T02:58:38.525Z,18.56
2023-09-13T03:01:11.597Z,18.57
2023-09-13T03:03:41.088Z,18.55
2023-09-13T03:06:14.823Z,18.46
2023-09-13T03:08:43.018Z,18.53
2023-09-13T03:11:18.052Z,18.49
2023-09-13T03:13:45.660Z,18.38
2023-09-13T03:16:21.017Z,18.49
2023-09-13T03:18:50.335Z,18.43
2023-09-13T03:21:21.260Z,18.47
2023-09-13T03:23:52.526Z,18.35
2023-09-13T03:26:23.706Z,18.50
2023-09-13T03:28:54.044Z,18.48
2023-09-13T03:31:22.766Z,18.49
2023-09-13T03:33:51.045Z,18.44
2023-09-13T03:36:18.331Z,18.42
2023-09-13T03:38:49.166Z,18.42
2023-09-13T03:41:21.486Z,18.46
2023-09-13T03:43:48.793Z,18.46
2023-09-13T03:46:15.413Z,18.33
2023-09-13T03:48:42.616Z,18.43
2023-09-13T03:51:10.353Z,18.47
2023-09-13T03:53:37.634Z,18.47
2023-09-13T03:56:05.551Z,18.32
2023-09-13T03:58:35.263Z,18.37
2023-09-13T04:01:03.957Z,18.37
2023-09-13T04:03:30.868Z,18.35
2023-09-13T04:05:57.768Z,18.30
2023-09-13T04:08:24.519Z,18.32
2023-09-13T04:10:51.782Z,18.32
2023-09-13T04:13:19.513Z,18.32
2023-09-13T04:15:46.775Z,18.18
2023-09-13T04:18:14.301Z,18.31
2023-09-13T04:20:44.577Z,18.38
2023-09-13T04:23:11.130Z,18.31
2023-09-13T04:25:39.182Z,18.36
2023-09-13T04:28:08.144Z,18.33
2023-09-13T04:30:35.240Z,18.23
2023-09-13T04:33:03.201Z,18.20
2023-09-13T04:35:31.059Z,18.17
2023-09-13T04:37:58.472Z,18.24
2023-09-13T04:40:25.384Z,18.17
2023-09-13T04:43:16.349Z,18.21
2023-09-13T04:45:44.177Z,18.18
2023-09-13T04:48:11.781Z,18.33
2023-09-13T04:50:38.291Z,18.54
2023-09-13T04:53:04.989Z,18.73
2023-09-13T04:55:31.801Z,18.88
2023-09-13T04:57:58.631Z,18.97
2023-09-13T05:00:27.993Z,19.07
2023-09-13T05:02:54.833Z,19.19
2023-09-13T05:05:21.509Z,18.97
2023-09-13T05:07:47.992Z,18.85
2023-09-13T05:10:14.721Z,18.83
2023-09-13T05:12:41.433Z,18.66
2023-09-13T05:15:08.413Z,18.69
2023-09-13T05:17:34.981Z,18.59
2023-09-13T05:20:01.670Z,18.59
2023-09-13T05:22:28.264Z,18.60
2023-09-13T05:24:54.959Z,18.59
2023-09-13T05:27:21.478Z,18.58
2023-09-13T05:29:49.441Z,18.51
2023-09-13T05:32:16.071Z,18.51
2023-09-13T05:34:42.699Z,18.50
2023-09-13T05:37:09.252Z,18.45
2023-09-13T05:39:35.782Z,18.42
2023-09-13T05:42:03.597Z,18.40
2023-09-13T05:44:30.098Z,18.42
2023-09-13T05:46:56.815Z,18.48
2023-09-13T05:49:23.829Z,18.54
2023-09-13T05:51:51.076Z,18.54
2023-09-13T05:54:17.663Z,18.54
2023-09-13T05:56:44.923Z,18.53
2023-09-13T05:59:13.475Z,18.47
2023-09-13T06:01:40.430Z,18.39
2023-09-13T06:04:08.580Z,18.50
2023-09-13T06:06:36.161Z,18.51
2023-09-13T06:09:04.803Z,18.49
2023-09-13T06:11:32.719Z,18.53
2023-09-13T06:13:59.396Z,18.48
2023-09-13T06:16:26.238Z,18.54
2023-09-13T06:18:53.234Z,18.49
2023-09-13T06:21:19.784Z,18.48
2023-09-13T06:23:46.547Z,18.51
2023-09-13T06:26:13.887Z,18.49
2023-09-13T06:28:40.954Z,18.53
2023-09-13T06:31:08.355Z,18.50
2023-09-13T06:36:06.388Z,18.65
2023-09-13T06:38:34.604Z,18.66
2023-09-13T06:41:02.234Z,18.73
2023-09-13T06:46:05.166Z,19.04
2023-09-13T06:48:34.888Z,19.19
2023-09-13T06:51:44.160Z,19.32
2023-09-13T06:53:51.410Z,19.70
2023-09-13T06:56:20.440Z,20.01
2023-09-13T06:58:51.718Z,20.32
2023-09-13T07:03:54.605Z,20.74
2023-09-13T07:06:22.873Z,20.85
2023-09-13T07:08:49.530Z,21.09
2023-09-13T07:11:19.152Z,21.31
2023-09-13T07:13:45.804Z,21.38
2023-09-13T07:16:12.438Z,21.47
2023-09-13T07:18:39.013Z,21.72
2023-09-13T07:21:05.516Z,22.08
2023-09-13T07:23:32.087Z,22.32
2023-09-13T07:25:58.749Z,22.44
2023-09-13T07:28:25.614Z,22.39
2023-09-13T07:30:52.382Z,22.19
2023-09-13T07:33:18.975Z,22.02
2023-09-13T07:35:45.491Z,21.92
2023-09-13T07:38:12.208Z,21.77
2023-09-13T07:40:40.042Z,21.66
2023-09-13T07:43:09.925Z,21.63
2023-09-13T07:45:36.616Z,21.62
2023-09-13T07:48:04.216Z,21.70
2023-09-13T07:50:41.576Z,21.92
2023-09-13T07:53:12.192Z,22.24
2023-09-13T07:55:39.767Z,22.45
2023-09-13T07:58:08.036Z,22.48
2023-09-13T08:00:34.849Z,22.35
2023-09-13T08:03:02.529Z,22.16
2023-09-13T08:05:29.184Z,22.04
2023-09-13T08:07:56.129Z,21.80
2023-09-13T08:10:25.793Z,21.63
2023-09-13T08:12:53.346Z,21.47
2023-09-13T08:15:23.003Z,21.23
2023-09-13T08:17:57.436Z,21.15
2023-09-13T08:20:24.127Z,21.04
2023-09-13T08:22:50.768Z,20.97
2023-09-13T08:25:17.550Z,20.98
2023-09-13T08:27:44.747Z,20.95
2023-09-13T08:30:11.485Z,20.92
2023-09-13T08:32:38.522Z,20.92
2023-09-13T08:35:05.841Z,20.97
2023-09-13T08:37:32.626Z,20.90
2023-09-13T08:39:59.264Z,20.93
2023-09-13T08:42:29.438Z,20.94
2023-09-13T08:44:58.219Z,21.07
2023-09-13T08:47:31.527Z,21.12
2023-09-13T08:50:09.041Z,21.23
2023-09-13T08:52:38.808Z,21.30
2023-09-13T08:55:07.951Z,21.35
2023-09-13T08:57:36.425Z,21.41
2023-09-13T09:00:03.320Z,21.54
2023-09-13T09:02:33.110Z,21.66
2023-09-13T09:05:01.209Z,21.73
2023-09-13T09:07:28.944Z,21.78
2023-09-13T09:09:56.749Z,21.83
2023-09-13T09:12:25.463Z,21.93
2023-09-13T09:14:54.891Z,22.01
2023-09-13T09:17:23.827Z,22.12
2023-09-13T09:19:50.942Z,22.46
2023-09-13T09:22:19.172Z,22.82
2023-09-13T09:24:47.132Z,22.97
2023-09-13T09:27:14.181Z,23.03
2023-09-13T09:29:41.180Z,22.94
2023-09-13T09:32:09.875Z,22.88
2023-09-13T09:34:42.570Z,22.90
2023-09-13T09:37:10.157Z,22.79
2023-09-13T09:39:43.114Z,22.94
2023-09-13T09:42:17.004Z,23.23
2023-09-13T09:44:43.907Z,23.27
2023-09-13T09:47:14.322Z,23.33
2023-09-13T09:49:42.430Z,23.42
2023-09-13T09:52:09.104Z,23.81
2023-09-13T09:54:40.447Z,24.17
2023-09-13T09:57:07.507Z,24.52
2023-09-13T09:59:37.853Z,24.73
2023-09-13T10:02:04.992Z,24.79
2023-09-13T10:04:45.729Z,24.75
2023-09-13T10:07:12.501Z,24.74
2023-09-13T10:09:46.375Z,24.76
2023-09-13T10:12:14.465Z,24.61
2023-09-13T10:14:42.975Z,24.38
2023-09-13T10:17:12.992Z,24.01
2023-09-13T10:19:43.025Z,23.99
2023-09-13T10:22:13.813Z,24.13
2023-09-13T10:24:49.202Z,24.36
2023-09-13T10:27:18.560Z,24.58
2023-09-13T10:29:58.863Z,23.71
2023-09-13T10:32:47.212Z,23.14
2023-09-13T10:35:15.095Z,23.36
2023-09-13T10:37:56.590Z,23.60
2023-09-13T10:40:29.060Z,23.79
2023-09-13T10:42:55.735Z,23.87
2023-09-13T10:45:23.667Z,23.85
2023-09-13T10:47:51.904Z,24.00
2023-09-13T10:50:20.668Z,24.12
2023-09-13T10:52:49.613Z,24.19
2023-09-13T10:55:17.012Z,24.28
2023-09-13T10:57:44.517Z,24.49
2023-09-13T11:00:12.708Z,24.47
2023-09-13T11:02:41.582Z,24.43
2023-09-13T11:05:12.798Z,24.42
2023-09-13T11:07:47.579Z,24.16
2023-09-13T11:10:15.799Z,24.15
2023-09-13T11:12:50.113Z,24.13
2023-09-13T11:15:24.302Z,24.13
2023-09-13T11:17:55.528Z,24.25
2023-09-13T11:20:30.704Z,24.33
2023-09-13T11:26:04.068Z,24.59
2023-09-13T11:28:44.528Z,24.48
2023-09-13T11:31:14.985Z,24.53
2023-09-13T11:33:52.448Z,24.38
2023-09-13T11:36:19.600Z,24.27
2023-09-13T11:38:54.432Z,24.46
2023-09-13T11:41:21.394Z,24.67
2023-09-13T11:44:03.068Z,24.77
2023-09-13T11:46:34.093Z,24.99
2023-09-13T11:49:03.561Z,25.03
2023-09-13T11:54:18.954Z,25.27
2023-09-13T11:56:48.596Z,25.14
2023-09-13T11:59:18.769Z,25.21
2023-09-13T12:01:48.593Z,25.01
2023-09-13T12:06:50.085Z,25.19
2023-09-13T12:09:23.693Z,25.28
2023-09-13T12:11:57.425Z,25.42
2023-09-13T12:14:40.762Z,25.58
2023-09-13T12:17:14.953Z,25.83
2023-09-13T12:19:41.666Z,25.93
2023-09-13T12:22:13.303Z,25.62
2023-09-13T12:24:50.779Z,25.22
2023-09-13T12:27:17.436Z,25.04
2023-09-13T12:29:48.141Z,25.02
2023-09-13T12:32:16.202Z,24.96
2023-09-13T12:34:43.344Z,24.89
2023-09-13T12:37:10.035Z,24.66
2023-09-13T12:39:36.578Z,24.55
2023-09-13T12:42:09.386Z,24.35
2023-09-13T12:44:38.202Z,24.01
2023-09-13T12:47:05.701Z,24.10
2023-09-13T12:49:32.328Z,24.05
2023-09-13T12:51:59.035Z,24.12
2023-09-13T12:54:25.699Z,24.19
2023-09-13T12:56:52.308Z,23.90
2023-09-13T12:59:22.709Z,24.19
2023-09-13T13:01:55.412Z,24.21
2023-09-13T13:04:24.508Z,24.21
2023-09-13T13:07:00.894Z,24.20
2023-09-13T13:09:27.816Z,24.33
2023-09-13T13:11:54.859Z,24.47
2023-09-13T13:14:24.569Z,24.52
2023-09-13T13:16:59.935Z,24.57
2023-09-13T13:19:55.162Z,24.69
2023-09-13T13:22:25.042Z,24.88
2023-09-13T13:24:53.412Z,24.77
2023-09-13T13:27:20.501Z,24.86
2023-09-13T13:29:47.148Z,24.78
2023-09-13T13:32:13.657Z,24.80
2023-09-13T13:34:40.269Z,24.87
2023-09-13T13:37:06.775Z,24.86
2023-09-13T13:39:33.359Z,24.94
2023-09-13T13:41:59.986Z,24.88
2023-09-13T13:44:26.700Z,24.87
2023-09-13T13:46:53.256Z,24.84
2023-09-13T13:49:20.148Z,24.78
2023-09-13T13:51:50.655Z,24.80
2023-09-13T13:54:19.029Z,24.74
2023-09-13T13:56:46.043Z,24.64
2023-09-13T13:59:13.559Z,24.68
2023-09-13T14:01:40.573Z,24.68
2023-09-13T14:04:08.586Z,24.73
2023-09-13T14:06:35.327Z,24.68
2023-09-13T14:09:05.130Z,24.67
2023-09-13T14:11:32.010Z,24.63
2023-09-13T14:13:58.522Z,24.65
2023-09-13T14:16:25.046Z,24.61
2023-09-13T14:18:51.644Z,24.54
2023-09-13T14:21:18.219Z,24.56
2023-09-13T14:23:46.016Z,24.56
2023-09-13T14:26:12.904Z,24.61
2023-09-13T14:28:39.473Z,24.61
2023-09-13T14:31:13.027Z,24.30
2023-09-13T14:33:43.422Z,24.22
2023-09-13T14:36:10.992Z,24.01
2023-09-13T14:38:37.752Z,23.55
2023-09-13T14:41:04.272Z,23.54
2023-09-13T14:43:30.776Z,23.66
2023-09-13T14:45:57.439Z,23.53
2023-09-13T14:48:24.164Z,23.51
2023-09-13T14:50:50.652Z,23.52
2023-09-13T14:53:17.160Z,23.58
2023-09-13T14:55:43.706Z,23.56
2023-09-13T14:58:10.355Z,23.51
2023-09-13T15:00:36.937Z,23.49
2023-09-13T15:03:04.673Z,23.00
2023-09-13T15:05:31.334Z,22.91
2023-09-13T15:07:57.801Z,22.85
2023-09-13T15:10:24.684Z,22.92
2023-09-13T15:12:51.288Z,22.99
2023-09-13T15:15:18.132Z,23.10
2023-09-13T15:17:44.991Z,23.13
2023-09-13T15:20:11.749Z,22.47
2023-09-13T15:22:38.336Z,22.50
2023-09-13T15:25:05.219Z,22.24
2023-09-13T15:27:31.833Z,22.04
2023-09-13T15:29:58.653Z,21.81
2023-09-13T15:32:25.361Z,21.94
2023-09-13T15:34:52.067Z,21.98
2023-09-13T15:37:18.576Z,21.97
2023-09-13T15:39:45.698Z,21.70
2023-09-13T15:42:12.423Z,21.40
2023-09-13T15:44:38.993Z,21.52
2023-09-13T15:47:05.614Z,21.78
2023-09-13T15:49:32.402Z,21.90
2023-09-13T15:51:59.000Z,21.89
2023-09-13T15:54:26.421Z,21.84
2023-09-13T15:56:53.375Z,21.72
2023-09-13T15:59:19.882Z,21.67
2023-09-13T16:01:46.449Z,21.77
2023-09-13T16:04:13.046Z,21.86
2023-09-13T16:06:40.005Z,21.98
2023-09-13T16:09:07.201Z,21.68
2023-09-13T16:11:35.441Z,21.68
2023-09-13T16:14:02.543Z,21.66
2023-09-13T16:16:32.177Z,21.74
2023-09-13T16:18:58.890Z,21.57
2023-09-13T16:21:26.954Z,21.55
2023-09-13T16:23:53.865Z,21.66
2023-09-13T16:26:21.517Z,21.54
2023-09-13T16:28:48.238Z,21.07
2023-09-13T16:31:14.924Z,21.26
2023-09-13T16:33:41.549Z,21.30
2023-09-13T16:36:08.078Z,21.44
2023-09-13T16:38:34.762Z,21.50
2023-09-13T16:41:01.372Z,21.61
2023-09-13T16:43:27.807Z,21.68
2023-09-13T16:45:54.427Z,21.68
2023-09-13T16:48:33.675Z,21.67
2023-09-13T16:51:01.681Z,21.59
2023-09-13T16:53:28.167Z,21.59
2023-09-13T16:55:55.002Z,21.52
2023-09-13T16:58:21.652Z,21.48
2023-09-13T17:00:49.826Z,21.57
2023-09-13T17:03:16.924Z,21.63
2023-09-13T17:05:43.828Z,21.49
2023-09-13T17:08:10.325Z,21.57
2023-09-13T17:10:36.971Z,21.59
2023-09-13T17:13:03.964Z,21.57
2023-09-13T17:15:30.626Z,21.55
2023-09-13T17:17:57.196Z,21.54
2023-09-13T17:20:23.979Z,21.50
2023-09-13T17:22:50.526Z,21.49
2023-09-13T17:25:17.134Z,21.30
2023-09-13T17:27:43.890Z,21.37
2023-09-13T17:30:10.748Z,21.28
2023-09-13T17:32:37.277Z,21.24
2023-09-13T17:35:04.038Z,20.99
2023-09-13T17:37:30.577Z,21.11
2023-09-13T17:39:57.582Z,21.05
2023-09-13T17:42:24.666Z,20.82
2023-09-13T17:44:52.176Z,20.80
2023-09-13T17:47:22.291Z,20.67
2023-09-13T17:49:49.902Z,20.62
2023-09-13T17:52:18.074Z,20.36
2023-09-13T17:54:44.728Z,20.17
2023-09-13T17:57:11.309Z,20.18
2023-09-13T17:59:38.803Z,20.18
2023-09-13T18:02:06.072Z,20.15
2023-09-13T18:04:32.898Z,20.04
2023-09-13T18:06:59.618Z,19.88
2023-09-13T18:09:26.305Z,19.82
2023-09-13T18:11:54.753Z,19.57
2023-09-13T18:14:21.871Z,19.58
2023-09-13T18:16:48.695Z,19.63
2023-09-13T18:19:17.235Z,19.34
2023-09-13T18:21:43.873Z,19.39
2023-09-13T18:24:10.379Z,19.34
2023-09-13T18:26:36.992Z,19.35
2023-09-13T18:29:03.909Z,19.33
2023-09-13T18:31:30.547Z,19.01
2023-09-13T18:33:57.329Z,18.93
2023-09-13T18:36:23.964Z,19.02
2023-09-13T18:38:51.391Z,19.05
2023-09-13T18:41:18.161Z,19.04
2023-09-13T18:43:44.788Z,18.79
2023-09-13T18:46:13.149Z,18.81
2023-09-13T18:48:39.980Z,18.74
2023-09-13T18:51:06.855Z,18.72
2023-09-13T18:53:34.487Z,18.74
2023-09-13T18:56:01.234Z,18.46
2023-09-13T18:58:28.989Z,18.27
2023-09-13T19:01:00.366Z,18.25
2023-09-13T19:03:28.448Z,17.93
2023-09-13T19:05:59.559Z,18.44
2023-09-13T19:08:28.764Z,18.34
2023-09-13T19:10:56.194Z,18.29
2023-09-13T19:13:23.051Z,17.53
2023-09-13T19:16:05.119Z,17.96
2023-09-13T19:18:33.802Z,17.98
2023-09-13T19:21:01.152Z,17.71
2023-09-13T19:23:30.953Z,17.44
2023-09-13T19:26:00.214Z,17.52
2023-09-13T19:28:29.434Z,17.66
2023-09-13T19:30:59.527Z,17.84
2023-09-13T19:33:27.906Z,18.01
2023-09-13T19:35:59.543Z,18.17
2023-09-13T19:38:30.389Z,18.20
2023-09-13T19:40:58.196Z,18.19
2023-09-13T19:43:26.358Z,18.16
2023-09-13T19:46:00.245Z,18.17
2023-09-13T19:48:27.920Z,18.33
2023-09-13T19:50:58.053Z,18.44
2023-09-13T19:53:26.056Z,18.56
2023-09-13T19:55:52.824Z,18.54
2023-09-13T19:58:19.717Z,18.59
2023-09-13T20:00:48.441Z,18.51
2023-09-13T20:03:15.630Z,18.38
2023-09-13T20:05:42.575Z,18.04
2023-09-13T20:08:09.947Z,17.68
2023-09-13T20:10:36.549Z,17.81
2023-09-13T20:13:04.536Z,17.68
2023-09-13T20:15:31.386Z,17.54
2023-09-13T20:17:59.497Z,17.43
2023-09-13T20:20:27.754Z,17.47
2023-09-13T20:22:54.929Z,17.47
2023-09-13T20:25:21.879Z,17.47
2023-09-13T20:27:48.718Z,17.59
2023-09-13T20:30:15.432Z,17.66
2023-09-13T20:32:42.831Z,17.69
2023-09-13T20:35:09.678Z,17.62
2023-09-13T20:37:36.276Z,17.40
2023-09-13T20:40:05.229Z,17.45
2023-09-13T20:42:31.948Z,17.27
2023-09-13T20:44:58.636Z,17.03
2023-09-13T20:47:25.132Z,17.06
2023-09-13T20:49:51.614Z,17.12
2023-09-13T20:52:21.520Z,17.03
2023-09-13T20:54:48.431Z,17.08
2023-09-13T20:57:14.945Z,17.11
2023-09-13T20:59:42.236Z,17.12
2023-09-13T21:02:08.792Z,17.40
2023-09-13T21:04:35.894Z,17.41
2023-09-13T21:07:05.054Z,17.46
2023-09-13T21:09:31.808Z,17.43
2023-09-13T21:11:58.416Z,17.55
2023-09-13T21:14:24.914Z,17.45
2023-09-13T21:16:51.473Z,17.53
2023-09-13T21:19:19.281Z,17.36
2023-09-13T21:21:46.106Z,17.35
2023-09-13T21:24:13.036Z,17.32
2023-09-13T21:26:42.265Z,17.20
2023-09-13T21:29:09.080Z,17.36
2023-09-13T21:31:36.754Z,17.38
2023-09-13T21:34:03.698Z,17.28
2023-09-13T21:36:30.306Z,17.31
2023-09-13T21:38:56.897Z,17.31
2023-09-13T21:41:24.201Z,17.33
2023-09-13T21:43:50.764Z,17.23
2023-09-13T21:46:17.315Z,17.14
2023-09-13T21:48:44.963Z,16.97
2023-09-13T21:51:12.647Z,16.83
2023-09-13T21:53:39.973Z,16.82
2023-09-13T21:56:08.716Z,16.91
2023-09-13T21:58:35.664Z,16.93
2023-09-13T22:01:02.700Z,17.06
2023-09-13T22:03:30.639Z,16.98
2023-09-13T22:05:57.429Z,17.02
2023-09-13T22:08:23.973Z,17.04
2023-09-13T22:11:01.571Z,16.86
2023-09-13T22:13:28.747Z,16.94
2023-09-13T22:15:55.578Z,16.83
2023-09-13T22:18:22.139Z,16.83
2023-09-13T22:20:50.072Z,16.82
2023-09-13T22:23:18.651Z,16.79
2023-09-13T22:25:45.786Z,16.83
2023-09-13T22:28:12.310Z,16.47
2023-09-13T22:30:41.967Z,16.44
2023-09-13T22:33:08.718Z,16.28
2023-09-13T22:35:35.426Z,16.15
2023-09-13T22:38:02.452Z,16.11
2023-09-13T22:40:29.288Z,16.15
2023-09-13T22:42:55.850Z,16.06
2023-09-13T22:45:22.603Z,16.08
2023-09-13T22:47:49.277Z,15.92
2023-09-13T22:50:15.878Z,15.99
2023-09-13T22:52:42.765Z,15.97
2023-09-13T22:55:09.429Z,15.97
2023-09-13T22:57:36.147Z,15.90
2023-09-13T23:00:04.539Z,15.85
2023-09-13T23:02:32.248Z,15.81
2023-09-13T23:04:58.849Z,15.71
2023-09-13T23:07:25.876Z,15.74
2023-09-13T23:09:52.346Z,15.67
2023-09-13T23:12:19.026Z,15.77
2023-09-13T23:14:45.522Z,15.91
2023-09-13T23:17:12.740Z,15.98
2023-09-13T23:19:39.317Z,15.98
2023-09-13T23:22:06.078Z,15.65
2023-09-13T23:24:35.945Z,15.91
2023-09-13T23:27:03.729Z,15.91
2023-09-13T23:29:30.730Z,16.00
2023-09-13T23:31:58.992Z,15.87
2023-09-13T23:34:25.687Z,15.92
2023-09-13T23:36:52.988Z,15.93
2023-09-13T23:39:19.565Z,15.59
2023-09-13T23:41:46.513Z,15.37
2023-09-13T23:44:14.788Z,15.61
2023-09-13T23:46:41.423Z,15.58
2023-09-13T23:49:09.126Z,15.50
2023-09-13T23:51:36.054Z,15.54
2023-09-13T23:54:02.543Z,15.48
2023-09-13T23:56:29.036Z,15.37
2023-09-13T23:58:57.387Z,15.38
